LIBP/PSR METAR and TAF weather

Enter ICAO airport designator
Station Type Date Time Source
LIBP METAR 2020/07/13 13:50 UTC NOAA

LIBP 131350Z AUTO 03008KT 350V070 9999 SCT240/// 25/11 Q1017


Station Type Date Time Source
LIBP Decoded METAR 2020/07/13 13:50 UTC NOAA

Pescara, Italy (LIBP) 42-26N 014-12E 11M
Jul 13, 2020 - 09:50 AM EDT / 2020.07.13 1350 UTC
Wind: from the NNE (030 degrees) at 9 MPH (8 KT) (direction variable):0
Visibility: greater than 7 mile(s):0
Sky conditions: partly cloudy
Temperature: 77 F (25 C)
Dew Point: 51 F (11 C)
Relative Humidity: 41%
Pressure (altimeter): 30.03 in. Hg (1017 hPa)
ob: LIBP 131350Z AUTO 03008KT 350V070 9999 SCT240/// 25/11 Q1017
cycle: 14

Station Type Date Time Source
LIBP TAF 2020/07/13 12:21 UTC NOAA

TAF LIBP 131100Z 1312/1412 04012KT 9999 FEW040
BECMG 1316/1318 VRB04KT
BECMG 1409/1411 02010KT

Example: see airport list